Time;durP1;ratioP1;P1;durP2;ratioP2;P2;SDS_P1;SDS_P2;PMS_P1;PMS_P2;Temp;Humidity;BMP_temperature;BMP_pressure;BME280_temperature;BME280_humidity;BME280_pressure;Samples;Min_cycle;Max_cycle;Signal;HPM_P1;HPM_P2
2023/06/03 00:00:10;;;;;;;0.50;0.50;;;;;;;13.23;62.40;96867.69;29395;259;63009;-50
2023/06/03 00:00:43;;;;;;;0.50;0.50;;;;;;;13.22;62.76;96872.34;29394;254;64009;-50
2023/06/03 00:01:15;;;;;;;0.50;0.50;;;;;;;13.21;62.47;96865.28;29395;251;63009;-62
2023/06/03 00:01:47;;;;;;;0.50;0.50;;;;;;;13.20;62.40;96869.13;29395;197;63005;-62
2023/06/03 00:02:20;;;;;;;0.47;0.47;;;;;;;13.21;61.66;96865.28;29395;249;63027;-50
2023/06/03 00:02:53;;;;;;;0.50;0.50;;;;;;;13.20;61.91;96869.13;29395;217;63005;-50
2023/06/03 00:03:25;;;;;;;0.50;0.50;;;;;;;13.21;62.23;96865.28;29395;207;63009;-60
2023/06/03 00:03:56;;;;;;;0.50;0.50;;;;;;;13.21;61.83;96865.28;29395;200;63005;-50
2023/06/03 00:04:30;;;;;;;0.50;0.50;;;;;;;13.24;62.08;96863.84;29395;225;63026;-51
2023/06/03 00:05:03;;;;;;;0.50;0.50;;;;;;;13.24;62.66;96864.66;29395;245;63004;-50
2023/06/03 00:05:34;;;;;;;0.50;0.50;;;;;;;13.24;62.13;96864.66;29395;198;63009;-49
2023/06/03 00:06:06;;;;;;;0.50;0.50;;;;;;;13.23;62.15;96863.06;29394;235;64009;-51
2023/06/03 00:06:37;;;;;;;0.50;0.50;;;;;;;13.23;62.38;96868.50;29395;221;63009;-61
2023/06/03 00:07:09;;;;;;;0.50;0.50;;;;;;;13.21;62.77;96865.28;29395;246;63004;-60
2023/06/03 00:07:40;;;;;;;0.50;0.50;;;;;;;13.18;62.53;96860.44;29395;262;63009;-61
2023/06/03 00:08:12;;;;;;;0.50;0.50;;;;;;;13.18;63.21;96867.81;29395;290;63005;-61
2023/06/03 00:08:43;;;;;;;0.47;0.47;;;;;;;13.17;63.41;96858.84;29395;223;63009;-60
2023/06/03 00:09:15;;;;;;;0.50;0.50;;;;;;;13.17;63.24;96863.50;29395;388;63005;-62
2023/06/03 00:09:46;;;;;;;0.50;0.50;;;;;;;13.15;62.82;96861.06;29395;202;63019;-63
2023/06/03 00:10:18;;;;;;;0.50;0.50;;;;;;;13.14;62.44;96864.91;29395;208;63010;-50
2023/06/03 00:10:49;;;;;;;0.50;0.50;;;;;;;13.11;63.19;96860.06;29395;240;63009;-62
2023/06/03 00:11:21;;;;;;;0.50;0.50;;;;;;;13.09;63.29;96859.56;29394;263;64009;-61
2023/06/03 00:11:52;;;;;;;0.50;0.50;;;;;;;13.07;62.95;96859.88;29395;228;63009;-50
2023/06/03 00:12:23;;;;;;;0.50;0.50;;;;;;;13.09;62.79;96857.66;29395;253;63000;-61
2023/06/03 00:12:55;;;;;;;0.50;0.50;;;;;;;13.11;62.50;96860.06;29395;253;63009;-61
2023/06/03 00:13:26;;;;;;;0.50;0.50;;;;;;;13.10;62.33;96855.72;29395;248;63004;-61
2023/06/03 00:13:57;;;;;;;0.50;0.50;;;;;;;13.08;62.47;96856.03;29395;407;63009;-61
2023/06/03 00:14:28;;;;;;;0.50;0.50;;;;;;;13.08;62.27;96856.03;29395;454;63004;-62
2023/06/03 00:15:00;;;;;;;0.50;0.50;;;;;;;13.07;62.61;96853.63;29395;246;63008;-50
2023/06/03 00:15:31;;;;;;;0.50;0.50;;;;;;;13.06;62.44;96852.03;29395;362;63016;-50
2023/06/03 00:16:03;;;;;;;0.50;0.50;;;;;;;13.06;63.07;96860.19;29395;488;63009;-62
2023/06/03 00:16:35;;;;;;;0.50;0.50;;;;;;;13.05;63.54;96861.31;29394;203;64009;-62
2023/06/03 00:17:07;;;;;;;0.40;0.40;;;;;;;13.03;63.24;96863.53;29395;412;63009;-62
2023/06/03 00:17:39;;;;;;;0.50;0.50;;;;;;;13.02;63.23;96861.91;29395;274;63005;-61
2023/06/03 00:18:10;;;;;;;0.50;0.50;;;;;;;13.00;63.26;96864.16;29395;205;63026;-60
2023/06/03 00:18:41;;;;;;;0.50;0.50;;;;;;;13.00;63.22;96854.06;29395;241;63005;-50
2023/06/03 00:19:14;;;;;;;0.50;0.50;;;;;;;13.01;63.13;96854.84;29395;479;63014;-51
2023/06/03 00:19:47;;;;;;;0.50;0.50;;;;;;;13.01;64.08;96860.31;29395;220;63004;-60
2023/06/03 00:20:18;;;;;;;0.47;0.47;;;;;;;13.00;62.94;96858.69;29395;220;63009;-61
2023/06/03 00:20:50;;;;;;;0.50;0.50;;;;;;;12.99;62.93;96859.81;29395;324;63004;-50
2023/06/03 00:21:21;;;;;;;0.50;0.50;;;;;;;13.00;63.23;96859.50;29395;225;63009;-51
2023/06/03 00:21:54;;;;;;;0.40;0.40;;;;;;;13.00;63.22;96854.06;29394;240;64009;-50
2023/06/03 00:22:27;;;;;;;0.50;0.50;;;;;;;13.01;63.44;96857.59;29395;196;63008;-61
2023/06/03 00:22:59;;;;;;;0.50;0.50;;;;;;;13.02;63.11;96859.19;29394;222;64009;-62
2023/06/03 00:23:31;;;;;;;0.50;0.50;;;;;;;13.01;63.33;96858.38;29395;403;63009;-50
2023/06/03 00:24:05;;;;;;;0.50;0.50;;;;;;;13.02;62.81;96856.47;29395;388;63005;-50
2023/06/03 00:24:36;;;;;;;0.50;0.50;;;;;;;13.02;63.16;96861.91;29395;370;63009;-62
2023/06/03 00:25:11;;;;;;;0.40;0.40;;;;;;;13.02;63.45;96856.47;29395;283;63015;-62
2023/06/03 00:25:42;;;;;;;0.50;0.50;;;;;;;13.01;63.36;96855.66;29395;225;63009;-62
2023/06/03 00:26:14;;;;;;;0.50;0.50;;;;;;;13.00;63.59;96858.69;29394;228;64009;-62
2023/06/03 00:26:47;;;;;;;0.50;0.50;;;;;;;12.98;64.27;96856.28;29395;339;63009;-61
2023/06/03 00:27:18;;;;;;;0.50;0.50;;;;;;;12.99;64.05;96862.53;29395;272;63004;-60
2023/06/03 00:27:54;;;;;;;0.50;0.50;;;;;;;12.98;63.77;96856.28;29394;252;64013;-50
2023/06/03 00:28:25;;;;;;;0.50;0.50;;;;;;;12.97;64.31;96860.13;29395;249;63004;-61
2023/06/03 00:28:56;;;;;;;0.50;0.50;;;;;;;12.97;64.12;96859.31;29395;219;63008;-50
2023/06/03 00:29:28;;;;;;;0.50;0.50;;;;;;;12.97;63.73;96862.84;29394;257;64004;-50
2023/06/03 00:30:00;;;;;;;0.50;0.50;;;;;;;12.97;63.52;96854.66;29394;241;64013;-62
2023/06/03 00:30:31;;;;;;;0.50;0.50;;;;;;;12.97;63.51;96859.31;29394;230;64009;-63
2023/06/03 00:31:02;;;;;;;0.50;0.50;;;;;;;12.97;63.42;96853.87;29395;230;63009;-50
2023/06/03 00:31:34;;;;;;;0.50;0.50;;;;;;;12.98;63.42;96855.47;29395;218;63005;-51
2023/06/03 00:32:06;;;;;;;0.50;0.50;;;;;;;12.98;63.29;96850.03;29395;293;63009;-51
2023/06/03 00:32:37;;;;;;;0.50;0.50;;;;;;;12.97;63.24;96851.13;29395;202;63016;-63
2023/06/03 00:33:08;;;;;;;0.50;0.50;;;;;;;12.98;63.16;96852.75;29395;260;63009;-62
2023/06/03 00:33:40;;;;;;;0.50;0.50;;;;;;;12.99;63.16;96857.09;29395;307;63005;-62
2023/06/03 00:34:11;;;;;;;0.45;0.45;;;;;;;12.98;63.16;96850.84;29395;227;63009;-62
2023/06/03 00:34:43;;;;;;;0.50;0.50;;;;;;;12.97;62.94;96848.41;29395;244;63004;-61
2023/06/03 00:35:15;;;;;;;0.50;0.50;;;;;;;12.97;62.67;96848.41;29395;211;63009;-62
2023/06/03 00:35:47;;;;;;;0.50;0.50;;;;;;;12.97;62.59;96848.41;29394;214;64009;-60
2023/06/03 00:36:19;;;;;;;0.50;0.50;;;;;;;12.98;62.76;96855.47;29395;268;63008;-61
2023/06/03 00:36:52;;;;;;;0.50;0.50;;;;;;;12.97;62.96;96849.22;29394;216;64008;-62
2023/06/03 00:37:24;;;;;;;0.50;0.50;;;;;;;12.96;62.54;96853.06;29395;264;63009;-61
2023/06/03 00:37:56;;;;;;;0.50;0.50;;;;;;;12.95;62.67;96845.19;29395;258;63005;-61
2023/06/03 00:38:27;;;;;;;0.50;0.50;;;;;;;12.93;63.37;96841.97;29395;233;63009;-61
2023/06/03 00:38:58;;;;;;;0.50;0.50;;;;;;;12.91;63.25;96849.66;29395;273;63005;-51
2023/06/03 00:39:30;;;;;;;0.50;0.50;;;;;;;12.90;63.60;96848.03;29395;226;63009;-50
2023/06/03 00:40:05;;;;;;;0.50;0.50;;;;;;;12.88;63.17;96851.06;29395;237;63005;-51
2023/06/03 00:40:36;;;;;;;0.50;0.50;;;;;;;12.87;62.75;96846.72;29395;218;63009;-51
2023/06/03 00:41:08;;;;;;;0.50;0.50;;;;;;;12.86;63.16;96845.13;29395;256;63009;-60
2023/06/03 00:41:39;;;;;;;0.50;0.50;;;;;;;12.85;63.48;96846.22;29395;263;63009;-50
2023/06/03 00:42:11;;;;;;;0.50;0.50;;;;;;;12.84;63.49;96846.53;29394;400;64009;-50
2023/06/03 00:42:42;;;;;;;0.50;0.50;;;;;;;12.83;63.23;96842.22;29395;202;63009;-62
2023/06/03 00:43:14;;;;;;;0.50;0.50;;;;;;;12.82;62.96;96846.06;29395;506;63004;-62
2023/06/03 00:43:45;;;;;;;0.40;0.40;;;;;;;12.81;63.74;96855.34;29395;426;63008;-63
2023/06/03 00:44:17;;;;;;;0.40;0.40;;;;;;;12.81;64.11;96850.72;29395;362;63004;-51
2023/06/03 00:44:48;;;;;;;0.50;0.50;;;;;;;12.80;63.85;96853.75;29395;206;63009;-61
2023/06/03 00:45:19;;;;;;;0.50;0.50;;;;;;;12.79;64.10;96857.56;29394;219;64009;-61
2023/06/03 00:45:50;;;;;;;0.50;0.50;;;;;;;12.78;64.03;96855.97;29395;236;63009;-63
2023/06/03 00:46:23;;;;;;;0.50;0.50;;;;;;;12.77;64.03;96844.28;29395;207;63005;-62
2023/06/03 00:46:54;;;;;;;0.50;0.50;;;;;;;12.76;63.98;96850.81;29395;237;63015;-62
2023/06/03 00:47:27;;;;;;;0.50;0.50;;;;;;;12.77;63.82;96854.34;29395;202;63005;-51
2023/06/03 00:47:59;;;;;;;0.50;0.50;;;;;;;12.77;63.51;96846.19;29395;301;63009;-63
2023/06/03 00:48:31;;;;;;;0.50;0.50;;;;;;;12.77;64.59;96854.34;29395;219;63005;-63
2023/06/03 00:49:03;;;;;;;0.50;0.50;;;;;;;12.78;64.15;96847.78;29394;246;64013;-61
2023/06/03 00:49:35;;;;;;;0.50;0.50;;;;;;;12.78;64.43;96847.78;29395;339;63004;-62
2023/06/03 00:50:08;;;;;;;0.50;0.50;;;;;;;12.78;64.31;96853.25;29395;339;63009;-62
2023/06/03 00:50:39;;;;;;;0.50;0.50;;;;;;;12.76;64.74;96856.28;29395;210;63004;-62
2023/06/03 00:51:15;;;;;;;0.50;0.50;;;;;;;12.74;63.97;96845.69;29395;424;63009;-62
2023/06/03 00:51:47;;;;;;;0.40;0.40;;;;;;;12.75;64.63;96847.28;29395;222;63004;-51
2023/06/03 00:52:22;;;;;;;0.50;0.50;;;;;;;12.77;63.97;96854.34;29395;197;63009;-51
2023/06/03 00:52:54;;;;;;;0.50;0.50;;;;;;;12.75;64.50;96852.75;29394;256;64009;-61
2023/06/03 00:53:26;;;;;;;0.50;0.50;;;;;;;12.75;64.03;96841.84;29394;256;64014;-61
2023/06/03 00:54:00;;;;;;;0.50;0.50;;;;;;;12.77;63.99;96844.28;29395;438;63005;-62
2023/06/03 00:54:31;;;;;;;0.50;0.50;;;;;;;12.75;64.04;96849.22;29395;227;63009;-61
2023/06/03 00:55:03;;;;;;;0.50;0.50;;;;;;;12.70;65.04;96850.12;29395;326;63005;-51
2023/06/03 00:55:37;;;;;;;0.50;0.50;;;;;;;12.67;65.20;96855.38;29395;209;63009;-62
2023/06/03 00:56:08;;;;;;;0.50;0.50;;;;;;;12.66;65.09;96848.31;29394;242;64009;-51
2023/06/03 00:56:44;;;;;;;0.50;0.50;;;;;;;12.62;66.19;96853.56;29394;399;64013;-62
2023/06/03 00:57:19;;;;;;;0.50;0.50;;;;;;;12.62;66.18;96848.13;29395;310;63004;-62
2023/06/03 00:57:51;;;;;;;0.47;0.47;;;;;;;12.61;65.58;96845.72;29395;231;63009;-62
2023/06/03 00:58:23;;;;;;;0.50;0.50;;;;;;;12.58;65.35;96852.56;29395;240;63015;-51
2023/06/03 00:58:56;;;;;;;0.50;0.50;;;;;;;12.59;65.25;96854.19;29395;280;63008;-63
2023/06/03 00:59:27;;;;;;;0.50;0.50;;;;;;;12.57;65.43;96848.25;29394;197;64008;-50
2023/06/03 00:59:58;;;;;;;0.50;0.50;;;;;;;12.57;65.20;96850.97;29395;223;63009;-50
2023/06/03 01:00:29;;;;;;;0.50;0.50;;;;;;;12.57;64.96;96848.25;29395;408;63013;-63
2023/06/03 01:01:01;;;;;;;0.52;0.52;;;;;;;12.54;65.42;96846.13;29395;202;63009;-62
2023/06/03 01:01:35;;;;;;;0.50;0.50;;;;;;;12.54;65.01;96846.13;29395;413;63005;-62
2023/06/03 01:02:07;;;;;;;0.50;0.50;;;;;;;12.54;65.36;96845.31;29395;271;63009;-63
2023/06/03 01:02:43;;;;;;;0.50;0.50;;;;;;;12.55;65.29;96853.19;29395;437;63008;-62
2023/06/03 01:03:19;;;;;;;0.50;0.50;;;;;;;12.54;65.37;96848.84;29395;258;63009;-62
2023/06/03 01:03:51;;;;;;;0.50;0.50;;;;;;;12.54;65.38;96848.84;29394;212;64009;-63
2023/06/03 01:04:26;;;;;;;0.50;0.50;;;;;;;12.53;65.40;96841.78;29395;202;63009;-62
2023/06/03 01:04:58;;;;;;;0.50;0.50;;;;;;;12.54;65.88;96850.78;29395;391;63004;-61
2023/06/03 01:05:30;;;;;;;0.50;0.50;;;;;;;12.50;66.11;96856.03;29395;218;63009;-62
2023/06/03 01:06:53;;;;;;;0.50;0.50;;;;;;;12.39;66.81;96849.22;29395;338;63004;-62
2023/06/03 01:07:49;;;;;;;0.50;0.50;;;;;;;12.32;66.81;96844.16;29416;384;64014;-62
2023/06/03 01:08:33;;;;;;;0.50;0.50;;;;;;;12.34;65.98;96846.59;29395;280;63005;-63
2023/06/03 01:09:36;;;;;;;0.50;0.50;;;;;;;12.38;66.45;96842.16;29395;255;63009;-51
2023/06/03 01:10:23;;;;;;;0.50;0.50;;;;;;;12.37;66.36;96840.53;29394;197;64009;-51
2023/06/03 01:11:12;;;;;;;0.50;0.50;;;;;;;12.38;66.79;96839.44;29395;237;63009;-63
2023/06/03 01:12:08;;;;;;;0.50;0.50;;;;;;;12.37;66.47;96835.09;29395;282;63004;-62
2023/06/03 01:13:17;;;;;;;0.50;0.50;;;;;;;12.38;66.10;96842.97;29394;222;64013;-50
2023/06/03 01:13:55;;;;;;;0.50;0.50;;;;;;;12.38;65.81;96839.44;29394;253;64009;-62
2023/06/03 01:14:44;;;;;;;0.50;0.50;;;;;;;12.39;66.19;96838.31;29395;224;63008;-62
2023/06/03 01:15:23;;;;;;;0.50;0.50;;;;;;;12.40;65.70;96839.94;29395;205;63011;-62
2023/06/03 01:16:04;;;;;;;0.50;0.50;;;;;;;12.41;65.75;96836.09;29395;240;63025;-51
2023/06/03 01:16:41;;;;;;;0.50;0.50;;;;;;;12.43;65.72;96843.97;29395;244;63005;-51
2023/06/03 01:17:16;;;;;;;0.50;0.50;;;;;;;12.42;65.68;96832.28;29395;235;63009;-62
2023/06/03 01:17:50;;;;;;;0.50;0.50;;;;;;;12.43;65.76;96836.59;29394;249;64009;-61
2023/06/03 01:18:22;;;;;;;0.50;0.50;;;;;;;12.43;66.08;96833.88;29395;212;63009;-62
2023/06/03 01:18:56;;;;;;;0.50;0.50;;;;;;;12.43;65.64;96833.06;29395;212;63005;-62
2023/06/03 01:19:50;;;;;;;0.50;0.50;;;;;;;12.43;65.84;96838.53;29395;232;63009;-64
2023/06/03 01:20:26;;;;;;;0.50;0.50;;;;;;;12.40;66.00;96837.22;29395;257;63011;-61
2023/06/03 01:21:00;;;;;;;0.50;0.50;;;;;;;12.42;65.95;96832.28;29395;228;63027;-63
2023/06/03 01:21:34;;;;;;;0.50;0.50;;;;;;;12.40;66.84;96834.50;29395;207;63004;-62
2023/06/03 01:22:14;;;;;;;0.50;0.50;;;;;;;12.40;66.58;96834.50;29395;255;63008;-50
2023/06/03 01:22:51;;;;;;;0.50;0.50;;;;;;;12.39;66.10;96832.88;29395;206;63005;-62
2023/06/03 01:23:28;;;;;;;0.50;0.50;;;;;;;12.40;66.36;96834.50;29394;207;64014;-62
2023/06/03 01:23:59;;;;;;;0.50;0.50;;;;;;;12.41;66.04;96830.66;29395;266;63005;-60
2023/06/03 01:24:32;;;;;;;0.50;0.50;;;;;;;12.40;66.20;96835.28;29395;271;63009;-51
2023/06/03 01:25:06;;;;;;;0.50;0.50;;;;;;;12.37;66.65;96835.91;29395;248;63005;-61
2023/06/03 01:25:41;;;;;;;0.50;0.50;;;;;;;12.36;66.50;96833.50;29395;228;63009;-50
2023/06/03 01:26:12;;;;;;;0.50;0.50;;;;;;;12.36;66.58;96830.78;29395;234;63016;-50
2023/06/03 01:26:45;;;;;;;0.50;0.50;;;;;;;12.35;66.61;96829.16;29394;202;64013;-61
2023/06/03 01:27:18;;;;;;;0.50;0.50;;;;;;;12.37;65.99;96835.91;29395;222;63004;-62
2023/06/03 01:27:49;;;;;;;0.50;0.50;;;;;;;12.37;66.64;96832.38;29394;220;64013;-62
2023/06/03 01:28:21;;;;;;;0.50;0.50;;;;;;;12.36;66.47;96834.28;29395;264;63004;-61
2023/06/03 01:28:52;;;;;;;0.50;0.50;;;;;;;12.36;66.59;96828.03;29394;241;64013;-62
2023/06/03 01:29:27;;;;;;;0.50;0.50;;;;;;;12.35;66.23;96827.25;29395;261;63004;-50
2023/06/03 01:29:59;;;;;;;0.50;0.50;;;;;;;12.33;66.23;96829.47;29395;268;63027;-51
2023/06/03 01:30:32;;;;;;;0.50;0.50;;;;;;;12.34;66.24;96833.78;29395;219;63019;-51
2023/06/03 01:31:05;;;;;;;0.50;0.50;;;;;;;12.33;66.32;96829.47;29394;197;64014;-63
2023/06/03 01:31:36;;;;;;;0.50;0.50;;;;;;;12.35;66.29;96834.59;29395;283;63005;-62
2023/06/03 01:32:16;;;;;;;0.50;0.50;;;;;;;12.34;66.28;96836.50;29395;226;63009;-62
2023/06/03 01:32:49;;;;;;;0.50;0.50;;;;;;;12.35;66.61;96829.16;29416;221;64009;-62
2023/06/03 01:33:22;;;;;;;0.47;0.47;;;;;;;12.34;66.86;96835.72;29395;206;63009;-51
2023/06/03 01:33:54;;;;;;;0.50;0.50;;;;;;;12.32;66.95;96837.94;29394;284;64001;-63
2023/06/03 01:34:27;;;;;;;0.50;0.50;;;;;;;12.31;66.71;96830.87;29395;240;63009;-62
2023/06/03 01:34:59;;;;;;;0.50;0.50;;;;;;;12.30;66.98;96829.25;29395;206;63004;-62
2023/06/03 01:35:34;;;;;;;0.50;0.50;;;;;;;12.29;67.46;96833.09;29395;210;63016;-62
2023/06/03 01:36:06;;;;;;;0.50;0.50;;;;;;;12.28;66.48;96831.47;29394;236;64008;-63
2023/06/03 01:36:38;;;;;;;0.50;0.50;;;;;;;12.30;66.77;96835.50;29395;202;63008;-63
2023/06/03 01:37:10;;;;;;;0.50;0.50;;;;;;;12.32;66.65;96832.47;29395;270;63004;-50
2023/06/03 01:37:42;;;;;;;0.50;0.50;;;;;;;12.31;66.84;96836.31;29395;197;63009;-51
2023/06/03 01:38:13;;;;;;;0.50;0.50;;;;;;;12.31;66.70;96830.87;29395;202;63016;-51
2023/06/03 01:38:45;;;;;;;0.50;0.50;;;;;;;12.29;67.34;96831.19;29395;242;63009;-51
2023/06/03 01:39:18;;;;;;;0.50;0.50;;;;;;;12.27;66.67;96835.31;29396;202;63019;-63
2023/06/03 01:39:50;;;;;;;0.50;0.50;;;;;;;12.26;66.98;96830.97;29396;235;63009;-61
2023/06/03 01:40:22;;;;;;;0.50;0.50;;;;;;;12.27;67.28;96835.31;29395;202;63013;-62
2023/06/03 01:40:55;;;;;;;0.50;0.50;;;;;;;12.26;67.50;96836.41;29395;235;64013;-62
2023/06/03 01:41:26;;;;;;;0.50;0.50;;;;;;;12.28;66.71;96831.47;29396;260;63004;-61
2023/06/03 01:41:58;;;;;;;0.50;0.50;;;;;;;12.28;66.93;96829.56;29396;225;63009;-63
2023/06/03 01:42:29;;;;;;;0.50;0.50;;;;;;;12.29;66.88;96835.81;29396;219;63004;-62
2023/06/03 01:43:01;;;;;;;0.50;0.50;;;;;;;12.29;66.75;96838.53;29396;277;63009;-62
2023/06/03 01:43:32;;;;;;;0.50;0.50;;;;;;;12.28;67.21;96831.47;29396;267;63004;-62
2023/06/03 01:44:04;;;;;;;0.50;0.50;;;;;;;12.26;67.12;96829.06;29396;205;63008;-61
2023/06/03 01:44:36;;;;;;;0.50;0.50;;;;;;;12.26;67.02;96831.78;29395;254;64009;-51
2023/06/03 01:45:10;;;;;;;0.50;0.50;;;;;;;12.27;67.23;96835.31;29395;205;63009;-62
2023/06/03 01:45:43;;;;;;;0.50;0.50;;;;;;;12.27;66.83;96838.03;29396;216;63005;-51
2023/06/03 01:46:14;;;;;;;0.50;0.50;;;;;;;12.25;67.13;96834.81;29395;270;64013;-62
2023/06/03 01:46:46;;;;;;;0.50;0.50;;;;;;;12.22;68.17;96836.22;29396;196;63005;-51
2023/06/03 01:47:17;;;;;;;0.50;0.50;;;;;;;12.18;68.39;96824.34;29396;246;63009;-61
2023/06/03 01:47:50;;;;;;;0.50;0.50;;;;;;;12.17;67.81;96838.25;29396;237;63005;-62
2023/06/03 01:48:22;;;;;;;0.50;0.50;;;;;;;12.14;67.83;96839.66;29396;378;63009;-50
2023/06/03 01:48:53;;;;;;;0.50;0.50;;;;;;;12.12;68.61;96838.37;29396;232;63004;-63
2023/06/03 01:49:25;;;;;;;0.50;0.50;;;;;;;12.10;68.06;96830.50;29395;242;64013;-63
2023/06/03 01:49:58;;;;;;;0.50;0.50;;;;;;;12.10;67.98;96833.22;29396;218;63010;-61
2023/06/03 01:50:31;;;;;;;0.50;0.50;;;;;;;12.10;68.09;96829.72;29396;225;63009;-61
2023/06/03 01:51:02;;;;;;;0.50;0.50;;;;;;;12.10;67.86;96833.22;29395;206;64008;-63
2023/06/03 01:51:34;;;;;;;0.50;0.50;;;;;;;12.11;67.76;96843.00;29396;210;63008;-52
2023/06/03 01:52:06;;;;;;;0.50;0.50;;;;;;;12.12;67.48;96835.66;29396;218;63019;-61
2023/06/03 01:52:37;;;;;;;0.50;0.50;;;;;;;12.12;68.10;96832.94;29396;260;63009;-62
2023/06/03 01:53:09;;;;;;;0.50;0.50;;;;;;;12.12;67.40;96830.22;29396;221;63005;-62
2023/06/03 01:53:41;;;;;;;0.50;0.50;;;;;;;12.12;67.44;96833.72;29396;202;63009;-61
2023/06/03 01:54:15;;;;;;;0.50;0.50;;;;;;;12.14;67.74;96830.69;29396;203;63005;-61
2023/06/03 01:54:46;;;;;;;0.50;0.50;;;;;;;12.13;67.25;96829.09;29396;259;63009;-62
2023/06/03 01:55:18;;;;;;;0.50;0.50;;;;;;;12.13;67.47;96823.66;29396;222;63005;-51
2023/06/03 01:55:49;;;;;;;0.50;0.50;;;;;;;12.12;67.13;96822.84;29396;243;63024;-61
2023/06/03 01:56:22;;;;;;;0.50;0.50;;;;;;;12.11;67.41;96829.41;29395;262;64009;-51
2023/06/03 01:56:54;;;;;;;0.50;0.50;;;;;;;12.10;67.41;96829.72;29396;222;63009;-61
2023/06/03 01:57:25;;;;;;;0.50;0.50;;;;;;;12.12;67.43;96827.50;29396;263;63004;-51
2023/06/03 01:57:57;;;;;;;0.50;0.50;;;;;;;12.12;67.83;96819.34;29396;202;63009;-61
2023/06/03 01:58:28;;;;;;;0.50;0.50;;;;;;;12.10;67.46;96832.44;29396;272;63004;-62
2023/06/03 01:58:59;;;;;;;0.50;0.50;;;;;;;12.09;68.04;96826.19;29396;233;63008;-51
2023/06/03 01:59:30;;;;;;;0.50;0.50;;;;;;;12.08;67.81;96833.53;29396;242;63005;-64
2023/06/03 02:00:06;;;;;;;0.50;0.50;;;;;;;12.06;67.81;96830.31;29396;197;63009;-62
2023/06/03 02:00:38;;;;;;;0.50;0.50;;;;;;;12.06;67.81;96833.03;29396;226;63005;-62
2023/06/03 02:01:09;;;;;;;0.50;0.50;;;;;;;12.05;68.09;96833.34;29396;197;63009;-50
2023/06/03 02:01:43;;;;;;;0.50;0.50;;;;;;;12.04;68.29;96832.53;29395;245;64009;-63
2023/06/03 02:02:15;;;;;;;0.50;0.50;;;;;;;12.04;68.33;96839.88;29396;239;63020;-62
2023/06/03 02:02:47;;;;;;;0.50;0.50;;;;;;;12.02;68.40;96834.75;29396;202;63005;-51
2023/06/03 02:03:21;;;;;;;0.40;0.40;;;;;;;12.02;68.70;96833.94;29396;248;63009;-63
2023/06/03 02:03:52;;;;;;;0.50;0.50;;;;;;;12.01;68.26;96833.13;29395;261;64009;-62
2023/06/03 02:04:24;;;;;;;0.50;0.50;;;;;;;12.00;68.34;96834.25;29396;210;63009;-62
2023/06/03 02:04:57;;;;;;;0.50;0.50;;;;;;;12.00;68.85;96831.53;29396;213;63004;-63
2023/06/03 02:05:29;;;;;;;0.50;0.50;;;;;;;11.99;68.55;96831.81;29396;292;63009;-61
2023/06/03 02:06:00;;;;;;;0.50;0.50;;;;;;;12.00;68.96;96839.69;29396;209;63004;-64
2023/06/03 02:06:31;;;;;;;0.50;0.50;;;;;;;11.97;68.88;96834.84;29396;215;63008;-51
2023/06/03 02:07:03;;;;;;;0.50;0.50;;;;;;;11.96;69.12;96835.12;29396;202;63005;-61
2023/06/03 02:07:34;;;;;;;0.50;0.50;;;;;;;11.96;68.65;96837.87;29396;238;63009;-63
2023/06/03 02:08:07;;;;;;;0.50;0.50;;;;;;;11.97;68.38;96828.59;29396;197;63005;-61
2023/06/03 02:08:39;;;;;;;0.50;0.50;;;;;;;11.99;68.56;96835.34;29396;214;63009;-62
2023/06/03 02:09:10;;;;;;;0.50;0.50;;;;;;;11.98;68.44;96839.19;29395;198;64009;-51
2023/06/03 02:09:41;;;;;;;0.50;0.50;;;;;;;11.98;68.41;96833.72;29396;208;63009;-51
2023/06/03 02:10:13;;;;;;;0.50;0.50;;;;;;;11.98;68.32;96833.72;29396;221;63005;-51
2023/06/03 02:10:45;;;;;;;0.50;0.50;;;;;;;11.99;68.71;96834.53;29396;260;63009;-62
2023/06/03 02:11:17;;;;;;;0.50;0.50;;;;;;;12.00;68.28;96836.16;29396;203;63004;-62
2023/06/03 02:11:48;;;;;;;0.50;0.50;;;;;;;11.99;68.63;96829.91;29396;264;63009;-51
2023/06/03 02:12:20;;;;;;;0.50;0.50;;;;;;;11.99;68.56;96837.25;29396;216;63004;-62
2023/06/03 02:12:51;;;;;;;0.47;0.47;;;;;;;11.97;69.13;96837.56;29396;221;63009;-61
2023/06/03 02:13:22;;;;;;;0.50;0.50;;;;;;;11.95;68.89;96826.19;29396;241;63004;-63
2023/06/03 02:13:53;;;;;;;2.33;2.22;;;;;;;11.94;68.75;96827.28;29396;259;63008;-50
2023/06/03 02:14:26;;;;;;;0.50;0.50;;;;;;;11.94;68.86;96837.34;29395;244;64009;-61
2023/06/03 02:15:02;;;;;;;0.50;0.50;;;;;;;11.94;68.64;96826.47;29396;221;63009;-61
2023/06/03 02:15:33;;;;;;;0.50;0.50;;;;;;;11.95;68.54;96828.09;29396;199;63005;-62
2023/06/03 02:16:06;;;;;;;0.50;0.50;;;;;;;11.89;68.70;96813.78;29396;206;63009;-51
2023/06/03 02:16:40;;;;;;;0.50;0.50;;;;;;;11.95;68.90;96828.09;29396;236;63005;-62
2023/06/03 02:17:11;;;;;;;0.50;0.50;;;;;;;11.92;69.27;96829.50;29396;326;63009;-50
2023/06/03 02:17:43;;;;;;;0.50;0.50;;;;;;;11.91;69.14;96835.25;29396;239;63015;-62
2023/06/03 02:18:16;;;;;;;0.50;0.50;;;;;;;11.91;69.28;96827.88;29396;216;63009;-62
2023/06/03 02:18:48;;;;;;;0.50;0.50;;;;;;;11.91;68.91;96825.16;29396;219;63004;-61
2023/06/03 02:19:21;;;;;;;0.50;0.50;;;;;;;11.91;68.68;96825.16;29396;257;63009;-51
2023/06/03 02:19:54;;;;;;;0.50;0.50;;;;;;;11.92;68.64;96829.50;29395;254;64002;-61
2023/06/03 02:20:26;;;;;;;0.50;0.50;;;;;;;11.87;69.12;96820.63;29396;256;63018;-61
2023/06/03 02:20:57;;;;;;;0.60;0.60;;;;;;;11.91;69.26;96825.16;29396;201;63004;-62
2023/06/03 02:21:29;;;;;;;0.50;0.50;;;;;;;11.91;69.01;96827.88;29396;204;63008;-63
2023/06/03 02:22:01;;;;;;;0.50;0.50;;;;;;;11.91;68.67;96822.44;29396;257;63018;-51
2023/06/03 02:22:32;;;;;;;0.50;0.50;;;;;;;11.89;69.14;96823.88;29396;239;63009;-63
2023/06/03 02:23:06;;;;;;;0.50;0.50;;;;;;;11.90;68.75;96820.84;29397;221;63005;-50
2023/06/03 02:23:37;;;;;;;0.50;0.50;;;;;;;11.92;68.62;96821.34;29397;266;63009;-62
2023/06/03 02:24:10;;;;;;;0.50;0.50;;;;;;;11.93;68.76;96820.25;29397;202;63005;-50
2023/06/03 02:24:41;;;;;;;0.50;0.50;;;;;;;11.94;69.09;96831.91;29397;206;63009;-61
2023/06/03 02:25:13;;;;;;;0.50;0.50;;;;;;;11.93;69.08;96825.69;29396;196;64009;-62
2023/06/03 02:25:46;;;;;;;0.50;0.50;;;;;;;11.92;69.49;96821.34;29397;204;63009;-61
2023/06/03 02:26:20;;;;;;;0.47;0.47;;;;;;;11.90;68.31;96823.56;29397;212;63004;-63
2023/06/03 02:26:52;;;;;;;0.47;0.47;;;;;;;11.91;68.99;96824.38;29397;254;63019;-62
2023/06/03 02:27:28;;;;;;;0.40;0.40;;;;;;;11.92;69.12;96824.06;29397;266;63004;-62
2023/06/03 02:28:00;;;;;;;0.40;0.40;;;;;;;11.92;68.96;96828.69;29397;239;63009;-62
2023/06/03 02:28:31;;;;;;;0.45;0.45;;;;;;;11.92;69.11;96829.50;29397;311;63004;-63
2023/06/03 02:29:03;;;;;;;0.43;0.43;;;;;;;11.92;69.00;96826.78;29397;218;63008;-50
2023/06/03 02:29:34;;;;;;;0.50;0.50;;;;;;;11.92;68.76;96829.50;29397;210;63005;-62
2023/06/03 02:30:07;;;;;;;0.50;0.50;;;;;;;11.92;68.94;96829.50;29397;256;63009;-50
2023/06/03 02:30:38;;;;;;;0.50;0.50;;;;;;;11.93;68.76;96822.16;29396;226;64009;-62
2023/06/03 02:31:10;;;;;;;0.50;0.50;;;;;;;11.93;68.62;96825.69;29396;239;64009;-61
2023/06/03 02:31:42;;;;;;;0.50;0.50;;;;;;;11.94;68.40;96827.28;29397;254;63005;-51
2023/06/03 02:32:16;;;;;;;0.50;0.50;;;;;;;11.93;68.34;96827.59;29396;229;64013;-62
2023/06/03 02:32:47;;;;;;;0.50;0.50;;;;;;;11.92;67.93;96824.06;29397;242;63005;-62
2023/06/03 02:33:18;;;;;;;0.50;0.50;;;;;;;11.93;68.14;96824.88;29397;228;63009;-51
2023/06/03 02:33:50;;;;;;;0.50;0.50;;;;;;;11.91;68.08;96827.88;29397;196;63004;-63
2023/06/03 02:34:21;;;;;;;0.50;0.50;;;;;;;11.91;68.37;96827.88;29396;238;64013;-62
2023/06/03 02:34:54;;;;;;;0.50;0.50;;;;;;;11.92;68.56;96828.69;29397;227;63004;-61
2023/06/03 02:35:26;;;;;;;0.50;0.50;;;;;;;11.93;68.24;96825.69;29397;251;63022;-50
2023/06/03 02:35:57;;;;;;;0.50;0.50;;;;;;;11.95;68.26;96820.75;29396;238;63004;-62
2023/06/03 02:36:28;;;;;;;0.50;0.50;;;;;;;11.99;68.11;96824.47;29396;207;63008;-63
2023/06/03 02:37:01;;;;;;;0.50;0.50;;;;;;;11.99;68.85;96829.91;29396;227;63005;-63
2023/06/03 02:37:33;;;;;;;0.50;0.50;;;;;;;11.96;69.05;96829.69;29395;252;64014;-63
2023/06/03 02:38:04;;;;;;;0.50;0.50;;;;;;;11.95;69.10;96828.09;29397;198;63005;-61